createdAt,value
2023-02-16T00:00:04.760Z,1.12
2023-02-16T00:01:05.126Z,1.12
2023-02-16T00:02:04.798Z,1.19
2023-02-16T00:03:04.718Z,1.12
2023-02-16T00:04:04.723Z,1.12
2023-02-16T00:05:04.696Z,1.12
2023-02-16T00:06:04.732Z,1.12
2023-02-16T00:07:04.726Z,1.12
2023-02-16T00:08:04.713Z,1.12
2023-02-16T00:09:04.727Z,1.06
2023-02-16T00:10:04.701Z,1.12
2023-02-16T00:11:05.007Z,1.12
2023-02-16T00:12:04.722Z,1.12
2023-02-16T00:13:04.712Z,1.12
2023-02-16T00:14:04.738Z,1.12
2023-02-16T00:15:04.732Z,1.06
2023-02-16T00:16:04.753Z,1.06
2023-02-16T00:17:04.708Z,1.06
2023-02-16T00:18:04.704Z,1.06
2023-02-16T00:19:04.712Z,1.06
2023-02-16T00:20:04.732Z,1.12
2023-02-16T00:21:04.916Z,1.06
2023-02-16T00:22:04.723Z,1.06
2023-02-16T00:23:04.722Z,1.06
2023-02-16T00:24:04.709Z,1.12
2023-02-16T00:25:04.741Z,1.06
2023-02-16T00:26:04.731Z,1.06
2023-02-16T00:27:04.728Z,1.06
2023-02-16T00:28:04.717Z,1.06
2023-02-16T00:29:04.751Z,1.06
2023-02-16T00:30:04.741Z,1.06
2023-02-16T00:31:05.023Z,1.06
2023-02-16T00:32:04.913Z,1.00
2023-02-16T00:33:04.703Z,1.00
2023-02-16T00:34:04.729Z,1.00
2023-02-16T00:35:04.769Z,1.00
2023-02-16T00:36:04.745Z,1.00
2023-02-16T00:37:04.745Z,1.00
2023-02-16T00:38:04.736Z,1.00
2023-02-16T00:39:04.750Z,1.00
2023-02-16T00:40:04.783Z,1.00
2023-02-16T00:41:04.990Z,1.00
2023-02-16T00:42:04.785Z,1.00
2023-02-16T00:43:04.748Z,1.00
2023-02-16T00:44:04.736Z,1.00
2023-02-16T00:45:04.754Z,1.00
2023-02-16T00:46:04.771Z,1.00
2023-02-16T00:47:04.765Z,1.00
2023-02-16T00:48:04.762Z,1.00
2023-02-16T00:49:04.753Z,1.00
2023-02-16T00:50:04.789Z,1.00
2023-02-16T00:51:13.875Z,1.00
2023-02-16T00:52:04.775Z,1.06
2023-02-16T00:53:04.759Z,1.06
2023-02-16T00:54:04.740Z,1.06
2023-02-16T00:55:04.753Z,1.06
2023-02-16T00:56:04.753Z,1.06
2023-02-16T00:57:04.760Z,1.06
2023-02-16T00:58:04.778Z,1.12
2023-02-16T00:59:04.772Z,1.12
2023-02-16T01:00:04.782Z,1.12
2023-02-16T01:01:04.973Z,1.06
2023-02-16T01:02:04.785Z,1.06
2023-02-16T01:03:04.776Z,1.06
2023-02-16T01:04:04.848Z,1.06
2023-02-16T01:05:04.777Z,1.06
2023-02-16T01:06:04.786Z,1.06
2023-02-16T01:07:04.774Z,1.06
2023-02-16T01:08:04.766Z,1.06
2023-02-16T01:09:04.754Z,1.06
2023-02-16T01:10:04.787Z,1.06
2023-02-16T01:11:05.114Z,1.06
2023-02-16T01:12:04.854Z,1.06
2023-02-16T01:13:04.778Z,1.06
2023-02-16T01:14:04.798Z,1.06
2023-02-16T01:15:04.751Z,1.06
2023-02-16T01:16:04.882Z,1.06
2023-02-16T01:17:04.808Z,1.00
2023-02-16T01:18:04.792Z,1.06
2023-02-16T01:19:04.794Z,1.00
2023-02-16T01:20:04.784Z,1.00
2023-02-16T01:21:04.958Z,1.00
2023-02-16T01:22:04.766Z,1.00
2023-02-16T01:23:04.812Z,1.00
2023-02-16T01:24:04.783Z,1.00
2023-02-16T01:25:04.794Z,1.00
2023-02-16T01:26:04.815Z,1.00
2023-02-16T01:27:04.770Z,1.00
2023-02-16T01:28:04.780Z,1.00
2023-02-16T01:29:04.831Z,1.00
2023-02-16T01:30:04.846Z,1.00
2023-02-16T01:31:05.160Z,1.00
2023-02-16T01:32:04.897Z,1.00
2023-02-16T01:33:04.795Z,1.00
2023-02-16T01:34:04.796Z,1.00
2023-02-16T01:35:04.774Z,1.00
2023-02-16T01:36:04.846Z,1.00
2023-02-16T01:37:04.804Z,1.00
2023-02-16T01:38:04.782Z,1.00
2023-02-16T01:39:04.801Z,1.00
2023-02-16T01:40:04.816Z,1.00
2023-02-16T01:41:05.025Z,1.00
2023-02-16T01:42:04.854Z,1.00
2023-02-16T01:43:04.797Z,1.00
2023-02-16T01:44:04.816Z,1.00
2023-02-16T01:45:04.790Z,1.00
2023-02-16T01:46:04.829Z,1.00
2023-02-16T01:47:04.813Z,1.00
2023-02-16T01:48:04.824Z,1.00
2023-02-16T01:49:04.787Z,1.00
2023-02-16T01:50:04.871Z,1.00
2023-02-16T01:51:05.051Z,1.00
2023-02-16T01:52:04.798Z,1.00
2023-02-16T01:53:04.819Z,1.00
2023-02-16T01:54:04.810Z,1.00
2023-02-16T01:55:04.818Z,0.94
2023-02-16T01:56:04.833Z,0.94
2023-02-16T01:57:04.794Z,0.94
2023-02-16T01:58:04.839Z,0.94
2023-02-16T01:59:04.818Z,0.94
2023-02-16T02:00:04.816Z,0.94
2023-02-16T02:01:05.265Z,0.94
2023-02-16T02:02:04.868Z,0.94
2023-02-16T02:03:04.974Z,0.94
2023-02-16T02:04:04.809Z,0.94
2023-02-16T02:05:04.811Z,0.94
2023-02-16T02:06:04.833Z,0.94
2023-02-16T02:07:04.812Z,0.94
2023-02-16T02:08:04.826Z,0.88
2023-02-16T02:09:04.832Z,0.88
2023-02-16T02:10:04.838Z,0.88
2023-02-16T02:11:05.166Z,0.94
2023-02-16T02:12:04.808Z,0.94
2023-02-16T02:13:04.906Z,0.94
2023-02-16T02:14:04.843Z,0.94
2023-02-16T02:15:04.802Z,0.94
2023-02-16T02:16:04.975Z,0.94
2023-02-16T02:17:04.831Z,0.94
2023-02-16T02:18:04.839Z,0.94
2023-02-16T02:19:04.839Z,1.00
2023-02-16T02:20:04.853Z,1.00
2023-02-16T02:21:05.112Z,1.00
2023-02-16T02:22:04.859Z,1.00
2023-02-16T02:23:04.820Z,1.00
2023-02-16T02:24:04.882Z,1.00
2023-02-16T02:25:04.887Z,1.00
2023-02-16T02:26:04.900Z,1.00
2023-02-16T02:27:04.867Z,0.94
2023-02-16T02:28:04.829Z,1.00
2023-02-16T02:29:04.865Z,0.94
2023-02-16T02:30:04.885Z,0.94
2023-02-16T02:31:05.094Z,0.94
2023-02-16T02:32:04.896Z,0.94
2023-02-16T02:33:04.865Z,0.94
2023-02-16T02:34:04.845Z,0.94
2023-02-16T02:35:04.882Z,0.94
2023-02-16T02:36:04.851Z,0.94
2023-02-16T02:37:04.879Z,0.94
2023-02-16T02:38:04.847Z,0.94
2023-02-16T02:39:04.820Z,0.94
2023-02-16T02:40:04.892Z,0.94
2023-02-16T02:41:05.065Z,0.94
2023-02-16T02:42:04.866Z,0.94
2023-02-16T02:43:04.863Z,0.94
2023-02-16T02:44:04.855Z,0.94
2023-02-16T02:45:04.850Z,0.94
2023-02-16T02:46:04.877Z,0.94
2023-02-16T02:47:04.853Z,0.94
2023-02-16T02:48:04.888Z,0.94
2023-02-16T02:49:04.884Z,0.94
2023-02-16T02:50:04.874Z,0.94
2023-02-16T02:51:05.061Z,0.94
2023-02-16T02:52:04.890Z,0.94
2023-02-16T02:53:04.833Z,0.88
2023-02-16T02:54:04.848Z,0.88
2023-02-16T02:55:04.845Z,0.88
2023-02-16T02:56:04.858Z,0.88
2023-02-16T02:57:04.904Z,0.88
2023-02-16T02:58:04.871Z,0.88
2023-02-16T02:59:04.856Z,0.88
2023-02-16T03:00:04.883Z,0.88
2023-02-16T03:01:05.332Z,0.88
2023-02-16T03:02:04.993Z,0.88
2023-02-16T03:03:04.873Z,0.88
2023-02-16T03:04:04.886Z,0.88
2023-02-16T03:05:04.913Z,0.81
2023-02-16T03:06:04.909Z,0.81
2023-02-16T03:07:04.865Z,0.81
2023-02-16T03:08:04.881Z,0.81
2023-02-16T03:09:04.900Z,0.81
2023-02-16T03:10:04.906Z,0.81
2023-02-16T03:11:05.148Z,0.81
2023-02-16T03:12:04.873Z,0.81
2023-02-16T03:13:04.894Z,0.81
2023-02-16T03:14:04.865Z,0.81
2023-02-16T03:15:04.867Z,0.75
2023-02-16T03:16:04.906Z,0.81
2023-02-16T03:17:04.867Z,0.81
2023-02-16T03:18:04.859Z,0.75
2023-02-16T03:19:04.891Z,0.75
2023-02-16T03:20:04.937Z,0.75
2023-02-16T03:21:05.177Z,0.69
2023-02-16T03:22:04.900Z,0.69
2023-02-16T03:23:04.886Z,0.69
2023-02-16T03:24:04.911Z,0.69
2023-02-16T03:25:04.899Z,0.62
2023-02-16T03:26:04.914Z,0.62
2023-02-16T03:27:04.910Z,0.62
2023-02-16T03:28:04.891Z,0.62
2023-02-16T03:29:04.929Z,0.62
2023-02-16T03:30:04.963Z,0.62
2023-02-16T03:31:05.195Z,0.56
2023-02-16T03:32:05.008Z,0.56
2023-02-16T03:33:04.898Z,0.56
2023-02-16T03:34:04.911Z,0.56
2023-02-16T03:35:04.887Z,0.56
2023-02-16T03:36:04.897Z,0.56
2023-02-16T03:37:04.928Z,0.50
2023-02-16T03:38:04.881Z,0.50
2023-02-16T03:39:04.902Z,0.50
2023-02-16T03:40:04.898Z,0.50
2023-02-16T03:41:05.183Z,0.50
2023-02-16T03:42:04.912Z,0.50
2023-02-16T03:43:04.902Z,0.44
2023-02-16T03:44:04.929Z,0.44
2023-02-16T03:45:05.083Z,0.50
2023-02-16T03:46:04.963Z,0.50
2023-02-16T03:47:04.889Z,0.50
2023-02-16T03:48:04.909Z,0.50
2023-02-16T03:49:04.879Z,0.44
2023-02-16T03:50:04.922Z,0.44
2023-02-16T03:51:05.209Z,0.44
2023-02-16T03:52:04.950Z,0.38
2023-02-16T03:53:04.939Z,0.38
2023-02-16T03:54:04.911Z,0.38
2023-02-16T03:55:04.910Z,0.38
2023-02-16T03:56:04.926Z,0.38
2023-02-16T03:57:04.954Z,0.38
2023-02-16T03:58:04.915Z,0.31
2023-02-16T03:59:04.924Z,0.31
2023-02-16T04:00:04.940Z,0.31
2023-02-16T04:01:05.293Z,0.31
2023-02-16T04:02:05.026Z,0.25
2023-02-16T04:03:04.930Z,0.25
2023-02-16T04:04:04.944Z,0.25
2023-02-16T04:05:04.953Z,0.25
2023-02-16T04:06:04.982Z,0.25
2023-02-16T04:07:04.914Z,0.25
2023-02-16T04:08:04.944Z,0.19
2023-02-16T04:09:04.903Z,0.19
2023-02-16T04:10:04.928Z,0.19
2023-02-16T04:11:05.223Z,0.19
2023-02-16T04:12:04.941Z,0.19
2023-02-16T04:13:04.982Z,0.19
2023-02-16T04:14:04.948Z,0.19
2023-02-16T04:15:04.954Z,0.12
2023-02-16T04:16:04.937Z,0.12
2023-02-16T04:17:04.971Z,0.12
2023-02-16T04:18:04.948Z,0.12
2023-02-16T04:19:04.965Z,0.12
2023-02-16T04:20:04.952Z,0.12
2023-02-16T04:21:05.161Z,0.12
2023-02-16T04:22:04.978Z,0.12
2023-02-16T04:23:04.952Z,0.12
2023-02-16T04:24:05.013Z,0.12
2023-02-16T04:25:04.987Z,0.12
2023-02-16T04:26:04.971Z,0.12
2023-02-16T04:27:04.939Z,0.06
2023-02-16T04:28:04.959Z,0.06
2023-02-16T04:29:04.937Z,0.06
2023-02-16T04:30:05.004Z,0.06
2023-02-16T04:31:05.232Z,0.06
2023-02-16T04:32:05.057Z,0.00
2023-02-16T04:33:04.942Z,0.00
2023-02-16T04:34:04.974Z,0.00
2023-02-16T04:35:04.972Z,0.00
2023-02-16T04:36:04.981Z,-0.06
2023-02-16T04:37:04.960Z,-0.06
2023-02-16T04:38:04.989Z,-0.06
2023-02-16T04:39:05.001Z,-0.06
2023-02-16T04:40:04.969Z,-0.06
2023-02-16T04:41:05.163Z,-0.06
2023-02-16T04:42:05.012Z,-0.06
2023-02-16T04:43:05.005Z,-0.06
2023-02-16T04:44:04.987Z,-0.12
2023-02-16T04:45:05.015Z,-0.12
2023-02-16T04:46:05.004Z,-0.12
2023-02-16T04:47:04.953Z,-0.12
2023-02-16T04:48:04.996Z,-0.12
2023-02-16T04:49:04.994Z,-0.12
2023-02-16T04:50:05.011Z,-0.12
2023-02-16T04:51:05.325Z,-0.12
2023-02-16T04:52:04.986Z,-0.12
2023-02-16T04:53:04.987Z,-0.12
2023-02-16T04:54:04.994Z,-0.12
2023-02-16T04:55:04.986Z,-0.19
2023-02-16T04:56:04.992Z,-0.19
2023-02-16T04:57:04.984Z,-0.19
2023-02-16T04:58:04.991Z,-0.19
2023-02-16T04:59:04.999Z,-0.25
2023-02-16T05:00:05.025Z,-0.25
2023-02-16T05:01:05.306Z,-0.25
2023-02-16T05:02:04.976Z,-0.25
2023-02-16T05:03:04.969Z,-0.25
2023-02-16T05:04:05.009Z,-0.25
2023-02-16T05:05:04.986Z,-0.25
2023-02-16T05:06:04.976Z,-0.31
2023-02-16T05:07:05.000Z,-0.25
2023-02-16T05:08:05.018Z,-0.25
2023-02-16T05:09:04.981Z,-0.25
2023-02-16T05:10:05.029Z,-0.25
2023-02-16T05:11:05.129Z,-0.31
2023-02-16T05:12:04.989Z,-0.31
2023-02-16T05:13:04.976Z,-0.31
2023-02-16T05:14:05.004Z,-0.31
2023-02-16T05:15:05.020Z,-0.31
2023-02-16T05:16:04.999Z,-0.31
2023-02-16T05:17:05.022Z,-0.31
2023-02-16T05:18:05.018Z,-0.31
2023-02-16T05:19:05.023Z,-0.38
2023-02-16T05:20:05.014Z,-0.38
2023-02-16T05:21:05.503Z,-0.44
2023-02-16T05:22:05.015Z,-0.44
2023-02-16T05:23:04.994Z,-0.44
2023-02-16T05:24:05.041Z,-0.44
2023-02-16T05:25:04.994Z,-0.50
2023-02-16T05:26:05.020Z,-0.50
2023-02-16T05:27:04.993Z,-0.50
2023-02-16T05:28:05.084Z,-0.50
2023-02-16T05:29:05.014Z,-0.50
2023-02-16T05:30:05.035Z,-0.50
2023-02-16T05:31:05.350Z,-0.50
2023-02-16T05:32:05.084Z,-0.50
2023-02-16T05:33:04.999Z,-0.56
2023-02-16T05:34:05.017Z,-0.56
2023-02-16T05:35:05.026Z,-0.56
2023-02-16T05:36:05.031Z,-0.56
2023-02-16T05:37:05.030Z,-0.56
2023-02-16T05:38:05.015Z,-0.56
2023-02-16T05:39:05.022Z,-0.56
2023-02-16T05:40:05.039Z,-0.56
2023-02-16T05:41:05.472Z,-0.56
2023-02-16T05:42:05.016Z,-0.62
2023-02-16T05:43:05.061Z,-0.62
2023-02-16T05:44:05.045Z,-0.62
2023-02-16T05:45:05.049Z,-0.62
2023-02-16T05:46:05.093Z,-0.62
2023-02-16T05:47:05.013Z,-0.62
2023-02-16T05:48:05.031Z,-0.62
2023-02-16T05:49:05.009Z,-0.62
2023-02-16T05:50:05.034Z,-0.69
2023-02-16T05:51:05.263Z,-0.69
2023-02-16T05:52:05.051Z,-0.69
2023-02-16T05:53:05.057Z,-0.69
2023-02-16T05:54:05.057Z,-0.69
2023-02-16T05:55:05.076Z,-0.69
2023-02-16T05:56:07.304Z,-0.75
2023-02-16T05:57:05.069Z,-0.75
2023-02-16T05:58:05.069Z,-0.75
2023-02-16T05:59:05.072Z,-0.75
2023-02-16T06:00:05.058Z,-0.75
2023-02-16T06:01:05.348Z,-0.75
2023-02-16T06:02:05.059Z,-0.75
2023-02-16T06:03:05.072Z,-0.75
2023-02-16T06:04:05.132Z,-0.81
2023-02-16T06:05:05.030Z,-0.81
2023-02-16T06:06:05.066Z,-0.75
2023-02-16T06:07:05.068Z,-0.81
2023-02-16T06:08:05.107Z,-0.81
2023-02-16T06:09:05.079Z,-0.81
2023-02-16T06:10:05.087Z,-0.81
2023-02-16T06:11:05.231Z,-0.81
2023-02-16T06:12:05.043Z,-0.81
2023-02-16T06:13:05.028Z,-0.88
2023-02-16T06:14:05.060Z,-0.88
2023-02-16T06:15:05.098Z,-0.88
2023-02-16T06:16:05.182Z,-0.88
2023-02-16T06:17:05.057Z,-0.88
2023-02-16T06:18:05.067Z,-0.88
2023-02-16T06:19:05.046Z,-0.88
2023-02-16T06:20:05.049Z,-0.88
2023-02-16T06:21:05.372Z,-0.88
2023-02-16T06:22:05.066Z,-0.94
2023-02-16T06:23:05.053Z,-0.88
2023-02-16T06:24:05.061Z,-0.88
2023-02-16T06:25:05.051Z,-0.88
2023-02-16T06:26:05.110Z,-0.88
2023-02-16T06:27:05.094Z,-0.88
2023-02-16T06:28:05.083Z,-0.88
2023-02-16T06:29:05.094Z,-0.94
2023-02-16T06:30:05.102Z,-0.88
2023-02-16T06:31:05.321Z,-0.94
2023-02-16T06:32:05.223Z,-0.88
2023-02-16T06:33:05.092Z,-0.94
2023-02-16T06:34:05.074Z,-0.94
2023-02-16T06:35:05.158Z,-0.94
2023-02-16T06:36:05.078Z,-0.94
2023-02-16T06:37:05.052Z,-0.94
2023-02-16T06:38:04.925Z,-0.94
2023-02-16T06:39:05.061Z,-0.94
2023-02-16T06:40:05.107Z,-0.94
2023-02-16T06:41:05.348Z,-0.94
2023-02-16T06:42:05.092Z,-0.94
2023-02-16T06:43:05.048Z,-0.94
2023-02-16T06:44:05.091Z,-0.94
2023-02-16T06:45:05.067Z,-0.94
2023-02-16T06:46:05.086Z,-0.94
2023-02-16T06:47:05.103Z,-0.94
2023-02-16T06:48:05.071Z,-0.94
2023-02-16T06:49:05.055Z,-0.94
2023-02-16T06:50:05.095Z,-0.94
2023-02-16T06:51:05.309Z,-0.94
2023-02-16T06:52:05.088Z,-0.88
2023-02-16T06:53:05.069Z,-0.88
2023-02-16T06:54:05.099Z,-0.88
2023-02-16T06:55:05.113Z,-0.88
2023-02-16T06:56:05.101Z,-0.88
2023-02-16T06:57:05.064Z,-0.81
2023-02-16T06:58:05.086Z,-0.81
2023-02-16T06:59:05.088Z,-0.81
2023-02-16T07:00:05.128Z,-0.81
2023-02-16T07:01:05.487Z,-0.75
2023-02-16T07:02:05.105Z,-0.81
2023-02-16T07:03:05.106Z,-0.75
2023-02-16T07:04:05.090Z,-0.75
2023-02-16T07:05:04.939Z,-0.75
2023-02-16T07:06:05.115Z,-0.69
2023-02-16T07:07:05.097Z,-0.69
2023-02-16T07:08:05.099Z,-0.69
2023-02-16T07:09:05.108Z,-0.69
2023-02-16T07:10:05.172Z,-0.62
2023-02-16T07:11:05.324Z,-0.62
2023-02-16T07:12:05.110Z,-0.62
2023-02-16T07:13:05.086Z,-0.56
2023-02-16T07:14:05.124Z,-0.56
2023-02-16T07:15:05.126Z,-0.50
2023-02-16T07:16:05.146Z,-0.50
2023-02-16T07:17:05.092Z,-0.44
2023-02-16T07:18:05.130Z,-0.38
2023-02-16T07:19:05.112Z,-0.38
2023-02-16T07:20:05.131Z,-0.31
2023-02-16T07:21:05.491Z,-0.25
2023-02-16T07:22:05.121Z,-0.19
2023-02-16T07:23:05.132Z,-0.12
2023-02-16T07:24:05.137Z,-0.06
2023-02-16T07:25:05.126Z,0.06
2023-02-16T07:26:05.135Z,0.12
2023-02-16T07:27:05.112Z,0.19
2023-02-16T07:28:05.110Z,0.31
2023-02-16T07:29:05.105Z,0.38
2023-02-16T07:30:05.194Z,0.50
2023-02-16T07:31:05.391Z,0.56
2023-02-16T07:32:05.212Z,0.69
2023-02-16T07:33:05.138Z,0.75
2023-02-16T07:34:05.201Z,0.88
2023-02-16T07:35:05.141Z,1.00
2023-02-16T07:36:05.134Z,1.06
2023-02-16T07:37:05.144Z,1.19
2023-02-16T07:38:05.140Z,1.25
2023-02-16T07:39:05.161Z,1.38
2023-02-16T07:40:05.159Z,1.50
2023-02-16T07:41:07.940Z,1.56
2023-02-16T07:42:05.146Z,1.69
2023-02-16T07:43:05.166Z,1.81
2023-02-16T07:44:05.137Z,1.94
2023-02-16T07:45:05.156Z,2.00
2023-02-16T07:46:05.038Z,2.12
2023-02-16T07:47:05.134Z,2.25
2023-02-16T07:48:05.015Z,2.38
2023-02-16T07:49:05.119Z,2.44
2023-02-16T07:50:05.141Z,2.56
2023-02-16T07:51:05.500Z,2.69
2023-02-16T07:52:05.134Z,2.81
2023-02-16T07:53:05.140Z,2.94
2023-02-16T07:54:05.168Z,3.00
2023-02-16T07:55:05.123Z,3.12
2023-02-16T07:56:05.157Z,3.19
2023-02-16T07:57:05.132Z,3.31
2023-02-16T07:58:05.146Z,3.38
2023-02-16T07:59:05.180Z,3.44
2023-02-16T08:00:05.177Z,3.56
2023-02-16T08:01:05.365Z,3.62
2023-02-16T08:02:05.262Z,3.75
2023-02-16T08:03:05.075Z,3.81
2023-02-16T08:04:05.143Z,3.88
2023-02-16T08:05:05.011Z,3.94
2023-02-16T08:06:05.035Z,4.00
2023-02-16T08:07:05.139Z,4.06
2023-02-16T08:08:05.172Z,4.06
2023-02-16T08:09:05.132Z,4.12
2023-02-16T08:10:05.176Z,4.12
2023-02-16T08:11:05.393Z,4.19
2023-02-16T08:12:05.168Z,4.25
2023-02-16T08:13:05.147Z,4.25
2023-02-16T08:14:05.185Z,4.31
2023-02-16T08:15:05.149Z,4.31
2023-02-16T08:16:05.428Z,4.38
2023-02-16T08:17:05.242Z,4.44
2023-02-16T08:18:05.171Z,4.50
2023-02-16T08:19:05.185Z,4.56
2023-02-16T08:20:05.188Z,4.62
2023-02-16T08:21:05.222Z,4.69
2023-02-16T08:22:05.321Z,4.75
2023-02-16T08:23:05.196Z,4.81
2023-02-16T08:24:05.232Z,4.94
2023-02-16T08:25:06.577Z,5.00
2023-02-16T08:26:05.591Z,5.06
2023-02-16T08:27:05.186Z,5.12
2023-02-16T08:28:05.201Z,5.19
2023-02-16T08:29:05.040Z,5.25
2023-02-16T08:30:05.051Z,5.31
2023-02-16T08:31:05.228Z,5.44
2023-02-16T08:32:05.300Z,5.50
2023-02-16T08:33:05.168Z,5.56
2023-02-16T08:34:05.222Z,5.62
2023-02-16T08:35:05.202Z,5.69
2023-02-16T08:36:05.414Z,5.75
2023-02-16T08:37:05.198Z,5.75
2023-02-16T08:38:05.209Z,5.81
2023-02-16T08:39:05.179Z,5.88
2023-02-16T08:40:05.206Z,5.94
2023-02-16T08:41:05.218Z,6.00
2023-02-16T08:42:05.220Z,6.06
2023-02-16T08:43:05.180Z,6.12
2023-02-16T08:44:05.202Z,6.12
2023-02-16T08:45:05.189Z,6.19
2023-02-16T08:46:05.496Z,6.19
2023-02-16T08:47:05.208Z,6.25
2023-02-16T08:48:05.012Z,6.25
2023-02-16T08:49:05.221Z,6.31
2023-02-16T08:50:05.058Z,6.31
2023-02-16T08:51:05.178Z,6.31
2023-02-16T08:52:05.193Z,6.38
2023-02-16T08:53:05.174Z,6.38
2023-02-16T08:54:06.013Z,6.44
2023-02-16T08:55:05.168Z,6.44
2023-02-16T08:56:05.538Z,6.44
2023-02-16T08:57:05.253Z,6.44
2023-02-16T08:58:05.192Z,6.44
2023-02-16T08:59:05.200Z,6.50
2023-02-16T09:00:05.235Z,6.50
2023-02-16T09:01:05.244Z,6.56
2023-02-16T09:02:05.252Z,6.56
2023-02-16T09:03:05.214Z,6.56
2023-02-16T09:04:05.223Z,6.56
2023-02-16T09:05:05.210Z,6.56
2023-02-16T09:06:05.600Z,6.56
2023-02-16T09:07:05.278Z,6.62
2023-02-16T09:08:05.228Z,6.56
2023-02-16T09:09:05.182Z,6.62
2023-02-16T09:10:05.213Z,6.62
2023-02-16T09:11:05.601Z,6.62
2023-02-16T09:12:05.220Z,6.62
2023-02-16T09:13:05.188Z,6.62
2023-02-16T09:14:04.977Z,6.62
2023-02-16T09:15:05.185Z,6.62
2023-02-16T09:16:05.588Z,6.62
2023-02-16T09:17:05.061Z,6.62
2023-02-16T09:18:05.222Z,6.62
2023-02-16T09:19:05.204Z,6.62
2023-02-16T09:20:05.232Z,6.62
2023-02-16T09:21:05.215Z,6.62
2023-02-16T09:22:05.225Z,6.62
2023-02-16T09:23:05.214Z,6.62
2023-02-16T09:24:05.213Z,6.69
2023-02-16T09:25:05.226Z,6.69
2023-02-16T09:26:05.429Z,6.69
2023-02-16T09:27:05.216Z,6.69
2023-02-16T09:28:05.252Z,6.69
2023-02-16T09:29:05.249Z,6.69
2023-02-16T09:30:05.260Z,6.69
2023-02-16T09:31:05.337Z,6.69
2023-02-16T09:32:05.245Z,6.69
2023-02-16T09:33:05.237Z,6.75
2023-02-16T09:34:05.291Z,6.75
2023-02-16T09:35:05.276Z,6.75
2023-02-16T09:36:05.576Z,6.75
2023-02-16T09:37:05.231Z,6.75
2023-02-16T09:38:05.254Z,6.81
2023-02-16T09:39:05.260Z,6.81
2023-02-16T09:40:05.292Z,6.81
2023-02-16T09:41:05.260Z,6.81
2023-02-16T09:42:05.293Z,6.88
2023-02-16T09:43:05.262Z,6.88
2023-02-16T09:44:05.015Z,6.88
2023-02-16T09:45:05.042Z,6.88
2023-02-16T09:46:05.181Z,6.94
2023-02-16T09:47:05.086Z,6.94
2023-02-16T09:48:05.085Z,7.00
2023-02-16T09:49:05.014Z,7.00
2023-02-16T09:50:05.097Z,7.00
2023-02-16T09:51:05.110Z,7.00
2023-02-16T09:52:05.266Z,7.06
2023-02-16T09:53:05.260Z,7.06
2023-02-16T09:54:05.265Z,7.06
2023-02-16T09:55:05.264Z,7.06
2023-02-16T09:56:05.489Z,7.12
2023-02-16T09:57:05.264Z,7.12
2023-02-16T09:58:05.267Z,7.19
2023-02-16T09:59:05.271Z,7.19
2023-02-16T10:00:05.260Z,7.19
2023-02-16T10:01:05.260Z,7.25
2023-02-16T10:02:05.326Z,7.25
2023-02-16T10:03:05.262Z,7.25
2023-02-16T10:04:05.286Z,7.31
2023-02-16T10:05:05.278Z,7.31
2023-02-16T10:06:05.574Z,7.38
2023-02-16T10:07:05.256Z,7.38
2023-02-16T10:08:05.342Z,7.38
2023-02-16T10:09:05.264Z,7.44
2023-02-16T10:10:03.525Z,7.50
2023-02-16T10:11:05.305Z,7.50
2023-02-16T10:12:05.112Z,7.50
2023-02-16T10:13:05.296Z,7.56
2023-02-16T10:14:05.289Z,7.56
2023-02-16T10:15:05.265Z,7.62
2023-02-16T10:16:05.361Z,7.62
2023-02-16T10:17:05.251Z,7.69
2023-02-16T10:18:05.279Z,7.75
2023-02-16T10:19:05.262Z,7.75
2023-02-16T10:20:05.283Z,7.81
2023-02-16T10:21:05.542Z,7.81
2023-02-16T10:22:05.283Z,7.88
2023-02-16T10:23:05.280Z,7.88
2023-02-16T10:24:05.272Z,7.88
2023-02-16T10:25:05.256Z,7.94
2023-02-16T10:26:05.342Z,7.94
2023-02-16T10:27:05.316Z,8.00
2023-02-16T10:28:05.290Z,8.00
2023-02-16T10:29:05.270Z,8.06
2023-02-16T10:30:03.538Z,8.06
2023-02-16T10:31:05.305Z,8.12
2023-02-16T10:32:05.164Z,8.12
2023-02-16T10:33:05.287Z,8.19
2023-02-16T10:34:05.288Z,8.19
2023-02-16T10:35:05.306Z,8.19
2023-02-16T10:36:05.291Z,8.25
2023-02-16T10:37:05.293Z,8.25
2023-02-16T10:38:05.307Z,8.31
2023-02-16T10:39:05.305Z,8.31
2023-02-16T10:40:05.318Z,8.38
2023-02-16T10:41:05.540Z,8.38
2023-02-16T10:42:05.307Z,8.44
2023-02-16T10:43:05.290Z,8.44
2023-02-16T10:44:05.315Z,8.50
2023-02-16T10:45:03.516Z,8.50
2023-02-16T10:46:03.571Z,8.50
2023-02-16T10:47:05.295Z,8.56
2023-02-16T10:48:05.321Z,8.56
2023-02-16T10:49:05.326Z,8.56
2023-02-16T10:50:05.159Z,8.62
2023-02-16T10:51:05.489Z,8.62
2023-02-16T10:52:05.172Z,8.69
2023-02-16T10:53:05.164Z,8.69
2023-02-16T10:54:05.158Z,8.75
2023-02-16T10:55:05.165Z,8.75
2023-02-16T10:56:05.328Z,8.75
2023-02-16T10:57:05.306Z,8.81
2023-02-16T10:58:05.324Z,8.81
2023-02-16T10:59:05.290Z,8.88
2023-02-16T11:00:05.340Z,8.88
2023-02-16T11:01:05.688Z,8.94
2023-02-16T11:02:05.312Z,8.94
2023-02-16T11:03:05.331Z,9.00
2023-02-16T11:04:05.370Z,9.00
2023-02-16T11:05:05.321Z,9.06
2023-02-16T11:06:05.612Z,9.12
2023-02-16T11:07:05.341Z,9.12
2023-02-16T11:08:05.344Z,9.12
2023-02-16T11:09:05.092Z,9.19
2023-02-16T11:10:03.522Z,9.19
2023-02-16T11:11:05.427Z,9.25
2023-02-16T11:12:05.171Z,9.25
2023-02-16T11:13:05.183Z,9.31
2023-02-16T11:14:06.395Z,9.31
2023-02-16T11:15:05.209Z,9.31
2023-02-16T11:16:05.255Z,9.31
2023-02-16T11:17:05.326Z,9.38
2023-02-16T11:18:05.326Z,9.38
2023-02-16T11:19:05.313Z,9.38
2023-02-16T11:20:05.340Z,9.44
2023-02-16T11:21:05.510Z,9.44
2023-02-16T11:22:05.334Z,9.44
2023-02-16T11:23:05.351Z,9.50
2023-02-16T11:24:05.359Z,9.50
2023-02-16T11:25:05.329Z,9.56
2023-02-16T11:26:05.409Z,9.56
2023-02-16T11:27:05.119Z,9.56
2023-02-16T11:28:05.355Z,9.56
2023-02-16T11:29:05.331Z,9.62
2023-02-16T11:30:05.408Z,9.62
2023-02-16T11:31:05.728Z,9.69
2023-02-16T11:32:05.392Z,9.69
2023-02-16T11:33:05.328Z,9.69
2023-02-16T11:34:06.177Z,9.75
2023-02-16T11:35:05.357Z,9.75
2023-02-16T11:36:05.371Z,9.75
2023-02-16T11:37:05.353Z,9.75
2023-02-16T11:38:05.367Z,9.81
2023-02-16T11:39:05.395Z,9.81
2023-02-16T11:40:03.436Z,9.88
2023-02-16T11:41:03.776Z,9.88
2023-02-16T11:42:03.512Z,9.94
2023-02-16T11:43:05.169Z,9.94
2023-02-16T11:44:05.184Z,9.94
2023-02-16T11:45:05.169Z,10.00
2023-02-16T11:46:05.437Z,10.00
2023-02-16T11:47:05.176Z,10.06
2023-02-16T11:48:05.173Z,10.06
2023-02-16T11:49:05.193Z,10.06
2023-02-16T11:50:03.589Z,10.12
2023-02-16T11:51:05.518Z,10.12
2023-02-16T11:52:05.229Z,10.12
2023-02-16T11:53:05.234Z,10.19
2023-02-16T11:54:05.428Z,10.19
2023-02-16T11:55:05.366Z,10.19
2023-02-16T11:56:05.621Z,10.25
2023-02-16T11:57:05.370Z,10.25
2023-02-16T11:58:05.360Z,10.25
2023-02-16T11:59:05.387Z,10.25
2023-02-16T12:00:05.372Z,10.31
2023-02-16T12:01:05.582Z,10.31
2023-02-16T12:02:05.390Z,10.31
2023-02-16T12:03:05.369Z,10.38
2023-02-16T12:04:05.436Z,10.38
2023-02-16T12:05:05.442Z,10.38
2023-02-16T12:06:05.380Z,10.38
2023-02-16T12:07:05.382Z,10.44
2023-02-16T12:08:05.397Z,10.44
2023-02-16T12:09:05.374Z,10.44
2023-02-16T12:10:05.402Z,10.44
2023-02-16T12:11:05.623Z,10.50
2023-02-16T12:12:03.531Z,10.50
2023-02-16T12:13:03.599Z,10.50
2023-02-16T12:14:03.507Z,10.56
2023-02-16T12:15:03.537Z,10.56
2023-02-16T12:16:05.208Z,10.56
2023-02-16T12:17:03.598Z,10.56
2023-02-16T12:18:05.146Z,10.56
2023-02-16T12:19:05.254Z,10.56
2023-02-16T12:20:05.208Z,10.62
2023-02-16T12:21:05.237Z,10.62
2023-02-16T12:22:05.402Z,10.62
2023-02-16T12:23:05.385Z,10.62
2023-02-16T12:24:05.399Z,10.69
2023-02-16T12:25:05.408Z,10.69
2023-02-16T12:26:05.765Z,10.69
2023-02-16T12:27:05.384Z,10.69
2023-02-16T12:28:05.414Z,10.69
2023-02-16T12:29:05.397Z,10.69
2023-02-16T12:30:05.427Z,10.69
2023-02-16T12:31:05.448Z,10.75
2023-02-16T12:32:03.547Z,10.75
2023-02-16T12:33:03.609Z,10.75
2023-02-16T12:34:05.161Z,10.75
2023-02-16T12:35:05.169Z,10.75
2023-02-16T12:36:05.473Z,10.81
2023-02-16T12:37:05.383Z,10.81
2023-02-16T12:38:05.408Z,10.81
2023-02-16T12:39:05.386Z,10.81
2023-02-16T12:40:05.408Z,10.81
2023-02-16T12:41:05.384Z,10.81
2023-02-16T12:42:05.429Z,10.81
2023-02-16T12:43:05.399Z,10.88
2023-02-16T12:44:05.419Z,10.88
2023-02-16T12:45:05.388Z,10.88
2023-02-16T12:46:05.695Z,10.88
2023-02-16T12:47:05.479Z,10.88
2023-02-16T12:48:05.436Z,10.88
2023-02-16T12:49:05.418Z,10.88
2023-02-16T12:50:05.412Z,10.88
2023-02-16T12:51:05.599Z,10.88
2023-02-16T12:52:05.461Z,10.88
2023-02-16T12:53:05.402Z,10.88
2023-02-16T12:54:05.412Z,10.94
2023-02-16T12:55:03.507Z,10.88
2023-02-16T12:56:03.856Z,10.94
2023-02-16T12:57:03.513Z,10.94
2023-02-16T12:58:03.584Z,10.94
2023-02-16T12:59:03.666Z,10.94
2023-02-16T13:00:03.580Z,10.94
2023-02-16T13:01:05.570Z,10.94
2023-02-16T13:02:05.446Z,10.94
2023-02-16T13:03:05.484Z,10.94
2023-02-16T13:04:05.426Z,10.94
2023-02-16T13:05:05.439Z,10.94
2023-02-16T13:06:05.731Z,10.94
2023-02-16T13:07:05.436Z,10.94
2023-02-16T13:08:05.448Z,10.88
2023-02-16T13:09:05.449Z,10.88